createdAt,value
2022-09-18T00:00:50.867Z,9.20
2022-09-18T00:05:53.033Z,9.30
2022-09-18T00:10:55.107Z,9.11
2022-09-18T00:15:57.388Z,9.41
2022-09-18T00:21:07.656Z,9.19
2022-09-18T00:26:11.472Z,9.22
2022-09-18T00:31:16.688Z,9.27
2022-09-18T00:36:19.410Z,9.34
2022-09-18T00:41:25.138Z,9.05
2022-09-18T00:46:33.469Z,9.15
2022-09-18T00:51:37.564Z,8.92
2022-09-18T00:56:39.882Z,8.90
2022-09-18T01:01:41.965Z,8.40
2022-09-18T01:06:52.305Z,8.18
2022-09-18T01:12:23.387Z,9.11
2022-09-18T01:17:48.842Z,8.73
2022-09-18T01:23:28.188Z,9.01
2022-09-18T01:28:34.243Z,8.87
2022-09-18T01:33:45.756Z,8.72
2022-09-18T01:38:52.803Z,8.78
2022-09-18T01:44:00.655Z,8.45
2022-09-18T01:49:06.024Z,8.45
2022-09-18T01:54:16.297Z,8.49
2022-09-18T01:59:28.431Z,8.07
2022-09-18T02:04:40.764Z,8.42
2022-09-18T02:09:46.738Z,8.42
2022-09-18T02:14:53.942Z,8.21
2022-09-18T02:20:35.469Z,7.86
2022-09-18T02:25:58.581Z,8.04
2022-09-18T02:31:01.441Z,8.19
2022-09-18T02:36:44.190Z,8.40
2022-09-18T02:42:05.973Z,8.47
2022-09-18T02:47:35.157Z,8.09
2022-09-18T02:52:48.235Z,7.86
2022-09-18T02:57:57.574Z,7.78
2022-09-18T03:03:00.443Z,7.80
2022-09-18T03:08:19.491Z,7.60
2022-09-18T03:13:21.685Z,7.99
2022-09-18T03:18:24.428Z,7.71
2022-09-18T03:23:26.945Z,7.73
2022-09-18T03:28:41.771Z,7.57
2022-09-18T03:33:44.100Z,7.91
2022-09-18T03:38:47.523Z,7.86
2022-09-18T03:43:50.075Z,7.54
2022-09-18T03:48:53.656Z,7.97
2022-09-18T03:53:57.452Z,7.35
2022-09-18T03:59:08.776Z,6.43
2022-09-18T04:04:26.009Z,7.95
2022-09-18T04:09:46.958Z,7.85
2022-09-18T04:14:50.622Z,7.96
2022-09-18T04:19:53.853Z,8.18
2022-09-18T04:24:56.230Z,7.53
2022-09-18T04:29:58.576Z,7.89
2022-09-18T04:35:00.929Z,7.84
2022-09-18T04:40:07.862Z,7.95
2022-09-18T04:45:11.068Z,8.42
2022-09-18T04:50:15.356Z,8.49
2022-09-18T04:55:37.442Z,8.60
2022-09-18T05:00:43.307Z,8.55
2022-09-18T05:05:45.644Z,8.28
2022-09-18T05:10:48.508Z,8.14
2022-09-18T05:15:56.268Z,8.52
2022-09-18T05:21:03.956Z,8.81
2022-09-18T05:26:07.353Z,8.48
2022-09-18T05:31:09.583Z,8.83
2022-09-18T05:36:17.512Z,9.03
2022-09-18T05:41:22.108Z,8.79
2022-09-18T05:46:24.517Z,8.77
2022-09-18T05:51:34.047Z,7.74
2022-09-18T05:56:36.765Z,8.82
2022-09-18T06:01:57.517Z,9.40
2022-09-18T06:07:28.813Z,9.25
2022-09-18T06:12:32.278Z,8.70
2022-09-18T06:17:40.287Z,9.15
2022-09-18T06:22:45.018Z,9.28
2022-09-18T06:27:58.639Z,9.14
2022-09-18T06:33:09.077Z,9.38
2022-09-18T06:38:11.341Z,9.71
2022-09-18T06:43:18.861Z,9.58
2022-09-18T06:48:39.768Z,9.77
2022-09-18T06:53:42.179Z,9.64
2022-09-18T06:58:45.419Z,10.24
2022-09-18T07:03:51.297Z,10.15
2022-09-18T07:08:58.245Z,10.56
2022-09-18T07:14:20.721Z,9.66
2022-09-18T07:19:25.042Z,10.83
2022-09-18T07:24:28.554Z,11.02
2022-09-18T07:29:33.097Z,11.20
2022-09-18T07:34:35.458Z,11.03
2022-09-18T07:39:37.756Z,11.54
2022-09-18T07:45:01.638Z,11.65
2022-09-18T07:50:05.900Z,11.97
2022-09-18T07:55:08.470Z,11.93
2022-09-18T08:00:13.044Z,12.28
2022-09-18T08:05:18.205Z,12.45
2022-09-18T08:10:30.494Z,12.62
2022-09-18T08:15:58.843Z,12.63
2022-09-18T08:21:21.017Z,12.88
2022-09-18T08:26:26.436Z,12.37
2022-09-18T08:31:30.072Z,12.82
2022-09-18T08:36:33.176Z,12.97
2022-09-18T08:42:33.907Z,12.92
2022-09-18T08:47:53.032Z,12.82
2022-09-18T08:53:03.253Z,12.87
2022-09-18T08:58:32.051Z,13.39
2022-09-18T09:03:57.422Z,13.41
2022-09-18T09:09:14.936Z,13.54
2022-09-18T09:14:52.744Z,13.50
2022-09-18T09:19:57.158Z,13.72
2022-09-18T09:25:08.511Z,13.80
2022-09-18T09:30:23.247Z,13.69
2022-09-18T09:35:56.204Z,13.66
2022-09-18T09:41:16.521Z,13.79
2022-09-18T09:46:52.302Z,13.90
2022-09-18T09:52:17.783Z,13.84
2022-09-18T09:57:43.847Z,14.03
2022-09-18T10:02:53.366Z,14.06
2022-09-18T10:08:19.661Z,14.04
2022-09-18T10:13:47.219Z,14.05
2022-09-18T10:18:53.418Z,13.76
2022-09-18T10:24:25.880Z,14.20
2022-09-18T10:29:35.789Z,13.67
2022-09-18T10:34:48.843Z,14.20
2022-09-18T10:40:02.506Z,14.04
2022-09-18T10:45:25.959Z,13.79
2022-09-18T10:50:34.576Z,13.98
2022-09-18T10:55:51.605Z,14.13
2022-09-18T11:01:04.122Z,14.17
2022-09-18T11:06:15.277Z,13.99
2022-09-18T11:11:39.862Z,13.76
2022-09-18T11:16:50.917Z,13.78
2022-09-18T11:21:56.323Z,13.95
2022-09-18T11:27:23.962Z,14.15
2022-09-18T11:32:50.819Z,13.84
2022-09-18T11:37:57.603Z,13.95
2022-09-18T11:43:03.170Z,13.86
2022-09-18T11:48:37.057Z,14.01
2022-09-18T11:53:42.180Z,12.28
2022-09-18T11:58:58.759Z,13.58
2022-09-18T12:04:19.531Z,13.88
2022-09-18T12:09:39.365Z,13.98
2022-09-18T12:15:05.661Z,13.60
2022-09-18T12:20:28.697Z,13.86
2022-09-18T12:25:43.525Z,13.79
2022-09-18T12:31:26.512Z,13.76
2022-09-18T12:36:50.344Z,13.72
2022-09-18T12:42:02.390Z,13.73
2022-09-18T12:47:18.659Z,13.54
2022-09-18T12:53:08.515Z,13.70
2022-09-18T12:58:30.061Z,13.80
2022-09-18T13:03:37.527Z,13.39
2022-09-18T13:08:55.223Z,13.51
2022-09-18T13:14:05.798Z,13.37
2022-09-18T13:19:24.480Z,13.06
2022-09-18T13:24:30.236Z,12.65
2022-09-18T13:29:54.268Z,13.32
2022-09-18T13:34:58.477Z,12.77
2022-09-18T13:40:11.285Z,13.27
2022-09-18T13:45:27.402Z,12.73
2022-09-18T13:50:30.240Z,12.88
2022-09-18T13:55:49.346Z,13.19
2022-09-18T14:00:55.008Z,12.92
2022-09-18T14:05:57.263Z,12.91
2022-09-18T14:11:15.135Z,12.87
2022-09-18T14:16:24.510Z,13.12
2022-09-18T14:21:34.821Z,12.73
2022-09-18T14:26:39.736Z,13.05
2022-09-18T14:31:45.247Z,12.99
2022-09-18T14:36:48.535Z,12.94
2022-09-18T14:41:52.369Z,12.63
2022-09-18T14:47:00.904Z,12.66
2022-09-18T14:52:04.899Z,12.44
2022-09-18T14:57:11.056Z,12.59
2022-09-18T15:02:34.385Z,12.84
2022-09-18T15:07:40.143Z,12.81
2022-09-18T15:12:42.782Z,12.61
2022-09-18T15:17:51.102Z,12.79
2022-09-18T15:22:57.016Z,12.55
2022-09-18T15:28:04.111Z,12.12
2022-09-18T15:33:12.499Z,11.86
2022-09-18T15:38:18.150Z,12.22
2022-09-18T15:43:41.223Z,12.71
2022-09-18T15:48:45.556Z,12.66
2022-09-18T15:54:13.275Z,12.75
2022-09-18T15:59:30.933Z,12.51
2022-09-18T16:04:36.200Z,12.17
2022-09-18T16:09:42.342Z,11.38
2022-09-18T16:14:50.362Z,11.71
2022-09-18T16:19:54.395Z,11.86
2022-09-18T16:24:57.760Z,12.40
2022-09-18T16:29:59.972Z,12.48
2022-09-18T16:35:11.536Z,12.44
2022-09-18T16:40:17.742Z,11.90
2022-09-18T16:45:20.115Z,12.39
2022-09-18T16:50:24.938Z,12.48
2022-09-18T16:55:27.360Z,12.41
2022-09-18T17:00:32.731Z,12.15
2022-09-18T17:05:35.164Z,12.03
2022-09-18T17:10:37.508Z,12.50
2022-09-18T17:15:39.917Z,12.60
2022-09-18T17:20:42.532Z,12.36
2022-09-18T17:25:48.560Z,12.27
2022-09-18T17:30:54.477Z,11.92
2022-09-18T17:35:56.790Z,12.37
2022-09-18T17:41:00.815Z,11.90
2022-09-18T17:46:05.573Z,12.50
2022-09-18T17:51:14.096Z,12.31
2022-09-18T17:56:18.463Z,12.30
2022-09-18T18:01:23.603Z,12.55
2022-09-18T18:06:26.236Z,12.34
2022-09-18T18:11:29.747Z,12.28
2022-09-18T18:16:35.362Z,12.57
2022-09-18T18:21:38.525Z,12.25
2022-09-18T18:26:44.241Z,12.47
2022-09-18T18:31:48.511Z,12.57
2022-09-18T18:36:54.960Z,12.28
2022-09-18T18:41:59.654Z,12.56
2022-09-18T18:47:01.996Z,12.50
2022-09-18T18:52:05.377Z,12.28
2022-09-18T18:57:07.769Z,12.14
2022-09-18T19:02:13.252Z,12.17
2022-09-18T19:07:15.515Z,11.68
2022-09-18T19:12:19.323Z,11.82
2022-09-18T19:17:21.658Z,12.62
2022-09-18T19:22:23.821Z,12.35
2022-09-18T19:27:26.012Z,11.80
2022-09-18T19:32:28.161Z,12.30
2022-09-18T19:37:30.439Z,12.47
2022-09-18T19:42:36.705Z,12.01
2022-09-18T19:47:42.941Z,12.48
2022-09-18T19:52:47.573Z,12.31
2022-09-18T19:57:54.505Z,12.48
2022-09-18T20:02:59.807Z,12.49
2022-09-18T20:08:02.176Z,12.39
2022-09-18T20:13:04.637Z,12.36
2022-09-18T20:18:07.472Z,12.46
2022-09-18T20:23:09.606Z,12.41
2022-09-18T20:28:11.790Z,12.52
2022-09-18T20:33:14.002Z,12.58
2022-09-18T20:38:17.190Z,12.60
2022-09-18T20:43:19.400Z,12.44
2022-09-18T20:48:26.523Z,12.36
2022-09-18T20:53:30.854Z,12.30
2022-09-18T20:58:35.310Z,12.41
2022-09-18T21:03:39.029Z,12.57
2022-09-18T21:08:46.151Z,12.71
2022-09-18T21:13:48.665Z,12.42
2022-09-18T21:18:53.571Z,12.53
2022-09-18T21:24:01.566Z,12.75
2022-09-18T21:29:08.039Z,12.61
2022-09-18T21:34:24.559Z,12.64
2022-09-18T21:39:28.455Z,12.66
2022-09-18T21:44:34.152Z,12.55
2022-09-18T21:49:36.377Z,11.96
2022-09-18T21:54:38.720Z,12.45
2022-09-18T21:59:40.790Z,12.74
2022-09-18T22:04:45.831Z,12.53
2022-09-18T22:09:48.156Z,12.71
2022-09-18T22:14:50.423Z,12.69
2022-09-18T22:19:52.698Z,12.64
2022-09-18T22:24:55.661Z,12.75
2022-09-18T22:30:00.071Z,12.71
2022-09-18T22:35:03.130Z,12.57
2022-09-18T22:40:06.611Z,12.91
2022-09-18T22:45:10.301Z,12.72
2022-09-18T22:50:12.428Z,12.70
2022-09-18T22:55:14.712Z,12.72
2022-09-18T23:00:16.859Z,12.87
2022-09-18T23:05:18.974Z,12.27
2022-09-18T23:10:22.263Z,12.79
2022-09-18T23:15:24.412Z,12.42
2022-09-18T23:20:26.519Z,12.73
2022-09-18T23:25:28.710Z,12.95
2022-09-18T23:30:31.209Z,12.83
2022-09-18T23:35:33.356Z,12.99
2022-09-18T23:40:35.913Z,12.96
2022-09-18T23:45:38.037Z,12.80
2022-09-18T23:50:42.417Z,12.60
2022-09-18T23:55:45.503Z,12.69
